Cherry Valley, California
Current Conditions -  °F | °C
As of 6:58 AM on Thursday 23 Oct 2014 (Local Time) from KRIV Reporting Station
Clear Clear  
Wind Chill: 49°   Ceiling: Unl
Heat Index: 49°   Visibility: 10mi
Dew Point: 42°   Wind: 0mph
Humidity: 77%   Direction: NA
Pressure: 30"   Gusts: NA
Location:  33.9205°N, 116.973°W
Report Text: KRIV 231358Z AUTO 00000KT 10SM CLR 09/05 A3000 RMK AO2 SLP153 T00920053
Loading
Personal Weather Stations






























Interactive Weather Map
Tropical Storm Tracking
New forecast layout! Learn more

10-Day Weather Forecast

Advertisements
Track Severe Weather on mobile